aviador You're here:

LJLJ Decoded Metar

LJUBLIANA in SLOVENIA
Report Time2018-01-21 06:30:00
UTC Time2018-01-21 06:49:08
Flight Rules vfr VFR
Wind270° at 07 kt
W.Decomp.*RWY 30: 5.9 kt HW 3.7 kt LCW
W.Rank270° ranks 5
Current wind is above 270° avg. (3.5)
Visibility9999 m
Phenomena:N/A
Clouds:Few 050 Hf
Expected CloudBase > 400 ft AGL from Temp-Dew spread
CeilingNone
Temp00°C (ISA -12)
Dew Point-1°C (93% RH)
AAT-4.6°C
QNH1001 hPa
Density Alt236 ft
Elevation1,263 ft
Report Wrong Elevation
Raw Report
LJLJ 210630Z 27007KT 9999 FEW050 M00/M01 Q1001 R30/CLRD//
NOSIG=

Extra information for LJLJ:More info

Metar Taf Metar & Taf Last 4 Metars F.Rules Stats Wind Profile Meteogram Temp Stats Airport Information Weather charts Add Link Nearby VenuesMetar ALERT Operation Metar Decoded Social comments

Webcam at LJLJ